National Weather Service Raw Text Product

Displaying AFOS PIL: TAFDSM Received: 2018-01-12 11:32 UTC


463 
FTUS43 KDMX 121132
TAFDSM
TAF
KDSM 121132Z 1212/1312 35012KT P6SM SKC
     FM121500 34011KT P6SM SKC
     FM130100 36010KT P6SM BKN080=